Terminal Aerodrome Forecast
Issued by NWS

Home | Current Version | Previous Version | Text Only | Print | Product List | Glossary On
Versions: 1 2 3 4 5 6 7 8 9 10 11 12 13 14 15
000
FTUS46 KSEW 201700
TAFBFI
TAF
KBFI 201727Z 2018/2118 18006KT P6SM SCT035 BKN060
     FM202000 18006KT P6SM -SHRA SCT035 BKN050
     FM210300 15004KT P6SM VCSH SCT035 BKN050
     FM210600 VRB03KT P6SM OVC035=

USA.gov is the U.S. government's official web portal to all federal, state and local government web resources and services.